sensor_id;sensor_type;location;lat;lon;timestamp;P1;durP1;ratioP1;P2;durP2;ratioP2
9745;SDS011;4912;50.836;12.958;2022-07-23T00:01:08;7.28;;;3.60;;
9745;SDS011;4912;50.836;12.958;2022-07-23T00:03:38;6.78;;;3.25;;
9745;SDS011;4912;50.836;12.958;2022-07-23T00:06:08;7.90;;;3.80;;
9745;SDS011;4912;50.836;12.958;2022-07-23T00:08:41;5.07;;;3.45;;
9745;SDS011;4912;50.836;12.958;2022-07-23T00:11:12;4.85;;;3.35;;
9745;SDS011;4912;50.836;12.958;2022-07-23T00:13:42;7.18;;;3.67;;
9745;SDS011;4912;50.836;12.958;2022-07-23T00:18:43;7.83;;;3.47;;
9745;SDS011;4912;50.836;12.958;2022-07-23T00:21:13;5.57;;;3.75;;
9745;SDS011;4912;50.836;12.958;2022-07-23T00:23:46;4.72;;;3.53;;
9745;SDS011;4912;50.836;12.958;2022-07-23T00:26:16;8.63;;;3.58;;
9745;SDS011;4912;50.836;12.958;2022-07-23T00:28:46;7.38;;;3.53;;
9745;SDS011;4912;50.836;12.958;2022-07-23T00:31:17;5.15;;;3.78;;
9745;SDS011;4912;50.836;12.958;2022-07-23T00:33:47;6.45;;;3.45;;
9745;SDS011;4912;50.836;12.958;2022-07-23T00:36:17;5.13;;;3.53;;
9745;SDS011;4912;50.836;12.958;2022-07-23T00:38:50;7.43;;;3.83;;
9745;SDS011;4912;50.836;12.958;2022-07-23T00:41:20;8.68;;;3.55;;
9745;SDS011;4912;50.836;12.958;2022-07-23T00:43:50;7.00;;;3.80;;
9745;SDS011;4912;50.836;12.958;2022-07-23T00:46:21;7.07;;;4.18;;
9745;SDS011;4912;50.836;12.958;2022-07-23T00:48:51;5.53;;;3.53;;
9745;SDS011;4912;50.836;12.958;2022-07-23T00:51:22;7.10;;;3.88;;
9745;SDS011;4912;50.836;12.958;2022-07-23T00:53:54;9.35;;;3.75;;
9745;SDS011;4912;50.836;12.958;2022-07-23T00:56:25;8.45;;;3.83;;
9745;SDS011;4912;50.836;12.958;2022-07-23T00:58:55;6.32;;;3.72;;
9745;SDS011;4912;50.836;12.958;2022-07-23T01:01:26;11.18;;;3.75;;
9745;SDS011;4912;50.836;12.958;2022-07-23T01:03:56;7.70;;;3.90;;
9745;SDS011;4912;50.836;12.958;2022-07-23T01:06:27;6.72;;;4.00;;
9745;SDS011;4912;50.836;12.958;2022-07-23T01:09:00;7.80;;;3.70;;
9745;SDS011;4912;50.836;12.958;2022-07-23T01:11:33;9.60;;;3.75;;
9745;SDS011;4912;50.836;12.958;2022-07-23T01:14:09;6.28;;;3.70;;
9745;SDS011;4912;50.836;12.958;2022-07-23T01:16:41;5.22;;;3.83;;
9745;SDS011;4912;50.836;12.958;2022-07-23T01:19:13;5.55;;;3.40;;
9745;SDS011;4912;50.836;12.958;2022-07-23T01:21:46;6.22;;;3.63;;
9745;SDS011;4912;50.836;12.958;2022-07-23T01:24:23;5.15;;;3.90;;
9745;SDS011;4912;50.836;12.958;2022-07-23T01:27:12;6.20;;;4.25;;
9745;SDS011;4912;50.836;12.958;2022-07-23T01:29:45;5.55;;;4.03;;
9745;SDS011;4912;50.836;12.958;2022-07-23T01:32:19;7.78;;;3.80;;
9745;SDS011;4912;50.836;12.958;2022-07-23T01:34:49;7.03;;;3.60;;
9745;SDS011;4912;50.836;12.958;2022-07-23T01:37:19;7.40;;;3.97;;
9745;SDS011;4912;50.836;12.958;2022-07-23T01:39:52;6.43;;;4.15;;
9745;SDS011;4912;50.836;12.958;2022-07-23T01:42:24;7.05;;;4.50;;
9745;SDS011;4912;50.836;12.958;2022-07-23T01:44:54;5.90;;;3.35;;
9745;SDS011;4912;50.836;12.958;2022-07-23T01:47:25;6.57;;;3.90;;
9745;SDS011;4912;50.836;12.958;2022-07-23T01:52:43;6.45;;;3.95;;
9745;SDS011;4912;50.836;12.958;2022-07-23T01:55:16;7.72;;;4.05;;
9745;SDS011;4912;50.836;12.958;2022-07-23T01:57:48;7.10;;;3.72;;
9745;SDS011;4912;50.836;12.958;2022-07-23T02:00:21;6.05;;;3.70;;
9745;SDS011;4912;50.836;12.958;2022-07-23T02:02:51;7.85;;;4.70;;
9745;SDS011;4912;50.836;12.958;2022-07-23T02:05:22;4.95;;;3.95;;
9745;SDS011;4912;50.836;12.958;2022-07-23T02:07:52;7.10;;;4.30;;
9745;SDS011;4912;50.836;12.958;2022-07-23T02:10:26;5.32;;;3.67;;
9745;SDS011;4912;50.836;12.958;2022-07-23T02:12:57;6.72;;;3.90;;
9745;SDS011;4912;50.836;12.958;2022-07-23T02:15:28;7.75;;;4.10;;
9745;SDS011;4912;50.836;12.958;2022-07-23T02:17:59;6.05;;;3.78;;
9745;SDS011;4912;50.836;12.958;2022-07-23T02:20:30;6.78;;;3.70;;
9745;SDS011;4912;50.836;12.958;2022-07-23T02:23:00;7.13;;;3.95;;
9745;SDS011;4912;50.836;12.958;2022-07-23T02:25:34;6.20;;;3.83;;
9745;SDS011;4912;50.836;12.958;2022-07-23T02:28:04;6.35;;;3.90;;
9745;SDS011;4912;50.836;12.958;2022-07-23T02:30:34;9.45;;;4.25;;
9745;SDS011;4912;50.836;12.958;2022-07-23T02:33:06;6.82;;;4.45;;
9745;SDS011;4912;50.836;12.958;2022-07-23T02:35:38;8.20;;;4.22;;
9745;SDS011;4912;50.836;12.958;2022-07-23T02:38:09;6.75;;;3.97;;
9745;SDS011;4912;50.836;12.958;2022-07-23T02:40:42;7.05;;;4.90;;
9745;SDS011;4912;50.836;12.958;2022-07-23T02:43:12;5.75;;;3.92;;
9745;SDS011;4912;50.836;12.958;2022-07-23T02:45:43;5.88;;;4.00;;
9745;SDS011;4912;50.836;12.958;2022-07-23T02:48:14;5.68;;;3.65;;
9745;SDS011;4912;50.836;12.958;2022-07-23T02:50:46;9.27;;;4.43;;
9745;SDS011;4912;50.836;12.958;2022-07-23T02:53:24;6.47;;;3.92;;
9745;SDS011;4912;50.836;12.958;2022-07-23T02:55:57;7.22;;;3.97;;
9745;SDS011;4912;50.836;12.958;2022-07-23T02:58:27;7.65;;;4.00;;
9745;SDS011;4912;50.836;12.958;2022-07-23T03:00:58;6.28;;;4.50;;
9745;SDS011;4912;50.836;12.958;2022-07-23T03:03:29;6.35;;;3.97;;
9745;SDS011;4912;50.836;12.958;2022-07-23T03:05:59;6.22;;;4.10;;
9745;SDS011;4912;50.836;12.958;2022-07-23T03:08:29;5.70;;;4.20;;
9745;SDS011;4912;50.836;12.958;2022-07-23T03:11:02;6.47;;;3.90;;
9745;SDS011;4912;50.836;12.958;2022-07-23T03:13:38;5.32;;;4.15;;
9745;SDS011;4912;50.836;12.958;2022-07-23T03:16:10;6.65;;;3.75;;
9745;SDS011;4912;50.836;12.958;2022-07-23T03:18:40;5.95;;;3.70;;
9745;SDS011;4912;50.836;12.958;2022-07-23T03:21:11;8.65;;;4.18;;
9745;SDS011;4912;50.836;12.958;2022-07-23T03:23:42;5.63;;;3.83;;
9745;SDS011;4912;50.836;12.958;2022-07-23T03:26:15;9.15;;;4.65;;
9745;SDS011;4912;50.836;12.958;2022-07-23T03:28:46;6.03;;;4.10;;
9745;SDS011;4912;50.836;12.958;2022-07-23T03:31:16;5.55;;;4.60;;
9745;SDS011;4912;50.836;12.958;2022-07-23T03:33:47;6.60;;;4.28;;
9745;SDS011;4912;50.836;12.958;2022-07-23T03:36:17;5.25;;;4.10;;
9745;SDS011;4912;50.836;12.958;2022-07-23T03:38:48;5.20;;;4.00;;
9745;SDS011;4912;50.836;12.958;2022-07-23T03:41:22;7.30;;;4.40;;
9745;SDS011;4912;50.836;12.958;2022-07-23T03:43:53;7.05;;;4.40;;
9745;SDS011;4912;50.836;12.958;2022-07-23T03:46:23;6.28;;;4.25;;
9745;SDS011;4912;50.836;12.958;2022-07-23T03:48:53;5.13;;;4.00;;
9745;SDS011;4912;50.836;12.958;2022-07-23T03:51:25;5.18;;;4.30;;
9745;SDS011;4912;50.836;12.958;2022-07-23T03:53:55;7.93;;;4.50;;
9745;SDS011;4912;50.836;12.958;2022-07-23T03:56:28;5.10;;;3.70;;
9745;SDS011;4912;50.836;12.958;2022-07-23T03:58:58;6.85;;;4.47;;
9745;SDS011;4912;50.836;12.958;2022-07-23T04:01:30;5.75;;;4.10;;
9745;SDS011;4912;50.836;12.958;2022-07-23T04:06:31;5.30;;;3.83;;
9745;SDS011;4912;50.836;12.958;2022-07-23T04:09:01;6.90;;;4.30;;
9745;SDS011;4912;50.836;12.958;2022-07-23T04:11:35;6.25;;;4.47;;
9745;SDS011;4912;50.836;12.958;2022-07-23T04:14:06;8.88;;;4.55;;
9745;SDS011;4912;50.836;12.958;2022-07-23T04:16:36;5.72;;;4.25;;
9745;SDS011;4912;50.836;12.958;2022-07-23T04:19:07;5.32;;;4.10;;
9745;SDS011;4912;50.836;12.958;2022-07-23T04:21:50;4.85;;;3.85;;
9745;SDS011;4912;50.836;12.958;2022-07-23T04:24:20;5.72;;;4.43;;
9745;SDS011;4912;50.836;12.958;2022-07-23T04:26:54;7.90;;;4.25;;
9745;SDS011;4912;50.836;12.958;2022-07-23T04:29:24;5.82;;;4.65;;
9745;SDS011;4912;50.836;12.958;2022-07-23T04:31:54;5.97;;;4.53;;
9745;SDS011;4912;50.836;12.958;2022-07-23T04:34:25;6.75;;;4.88;;
9745;SDS011;4912;50.836;12.958;2022-07-23T04:36:55;7.75;;;4.80;;
9745;SDS011;4912;50.836;12.958;2022-07-23T04:39:28;7.43;;;4.63;;
9745;SDS011;4912;50.836;12.958;2022-07-23T04:42:01;6.25;;;4.55;;
9745;SDS011;4912;50.836;12.958;2022-07-23T04:44:31;6.35;;;4.72;;
9745;SDS011;4912;50.836;12.958;2022-07-23T04:47:03;9.25;;;5.13;;
9745;SDS011;4912;50.836;12.958;2022-07-23T04:49:34;6.38;;;4.97;;
9745;SDS011;4912;50.836;12.958;2022-07-23T04:52:05;8.75;;;4.75;;
9745;SDS011;4912;50.836;12.958;2022-07-23T04:57:08;8.02;;;5.30;;
9745;SDS011;4912;50.836;12.958;2022-07-23T04:59:38;6.18;;;5.35;;
9745;SDS011;4912;50.836;12.958;2022-07-23T05:02:09;7.85;;;5.90;;
9745;SDS011;4912;50.836;12.958;2022-07-23T05:04:40;7.63;;;5.20;;
9745;SDS011;4912;50.836;12.958;2022-07-23T05:07:11;11.48;;;6.03;;
9745;SDS011;4912;50.836;12.958;2022-07-23T05:09:41;6.90;;;4.97;;
9745;SDS011;4912;50.836;12.958;2022-07-23T05:12:14;9.27;;;6.07;;
9745;SDS011;4912;50.836;12.958;2022-07-23T05:14:45;6.80;;;5.75;;
9745;SDS011;4912;50.836;12.958;2022-07-23T05:17:15;6.82;;;5.43;;
9745;SDS011;4912;50.836;12.958;2022-07-23T05:19:45;7.40;;;5.30;;
9745;SDS011;4912;50.836;12.958;2022-07-23T05:22:16;6.55;;;5.35;;
9745;SDS011;4912;50.836;12.958;2022-07-23T05:24:46;8.18;;;5.57;;
9745;SDS011;4912;50.836;12.958;2022-07-23T05:27:19;6.60;;;5.20;;
9745;SDS011;4912;50.836;12.958;2022-07-23T05:29:49;9.18;;;5.13;;
9745;SDS011;4912;50.836;12.958;2022-07-23T05:32:20;7.38;;;6.25;;
9745;SDS011;4912;50.836;12.958;2022-07-23T05:34:59;8.40;;;5.63;;
9745;SDS011;4912;50.836;12.958;2022-07-23T05:37:30;7.43;;;5.28;;
9745;SDS011;4912;50.836;12.958;2022-07-23T05:40:01;7.45;;;5.60;;
9745;SDS011;4912;50.836;12.958;2022-07-23T05:42:36;8.48;;;5.65;;
9745;SDS011;4912;50.836;12.958;2022-07-23T05:45:09;8.50;;;5.70;;
9745;SDS011;4912;50.836;12.958;2022-07-23T05:47:45;9.80;;;5.85;;
9745;SDS011;4912;50.836;12.958;2022-07-23T05:50:26;8.15;;;6.25;;
9745;SDS011;4912;50.836;12.958;2022-07-23T05:53:07;9.63;;;6.53;;
9745;SDS011;4912;50.836;12.958;2022-07-23T05:55:58;8.30;;;5.90;;
9745;SDS011;4912;50.836;12.958;2022-07-23T05:58:32;12.05;;;6.22;;
9745;SDS011;4912;50.836;12.958;2022-07-23T06:01:03;10.02;;;6.50;;
9745;SDS011;4912;50.836;12.958;2022-07-23T06:03:43;8.52;;;6.10;;
9745;SDS011;4912;50.836;12.958;2022-07-23T06:06:14;11.25;;;6.32;;
9745;SDS011;4912;50.836;12.958;2022-07-23T06:08:45;11.57;;;7.57;;
9745;SDS011;4912;50.836;12.958;2022-07-23T06:11:15;8.13;;;6.28;;
9745;SDS011;4912;50.836;12.958;2022-07-23T06:13:49;10.48;;;6.68;;
9745;SDS011;4912;50.836;12.958;2022-07-23T06:16:23;8.27;;;6.40;;
9745;SDS011;4912;50.836;12.958;2022-07-23T06:18:54;11.20;;;6.72;;
9745;SDS011;4912;50.836;12.958;2022-07-23T06:21:28;10.40;;;7.05;;
9745;SDS011;4912;50.836;12.958;2022-07-23T06:24:12;8.98;;;6.60;;
9745;SDS011;4912;50.836;12.958;2022-07-23T06:26:43;11.50;;;6.53;;
9745;SDS011;4912;50.836;12.958;2022-07-23T06:29:16;11.20;;;6.72;;
9745;SDS011;4912;50.836;12.958;2022-07-23T06:31:46;11.45;;;6.78;;
9745;SDS011;4912;50.836;12.958;2022-07-23T06:34:17;9.27;;;6.40;;
9745;SDS011;4912;50.836;12.958;2022-07-23T06:36:47;8.55;;;6.20;;
9745;SDS011;4912;50.836;12.958;2022-07-23T06:39:17;9.00;;;6.40;;
9745;SDS011;4912;50.836;12.958;2022-07-23T06:41:48;10.60;;;6.88;;
9745;SDS011;4912;50.836;12.958;2022-07-23T06:44:38;10.70;;;6.30;;
9745;SDS011;4912;50.836;12.958;2022-07-23T06:47:08;7.97;;;5.55;;
9745;SDS011;4912;50.836;12.958;2022-07-23T06:49:39;8.77;;;6.22;;
9745;SDS011;4912;50.836;12.958;2022-07-23T06:52:10;8.73;;;5.82;;
9745;SDS011;4912;50.836;12.958;2022-07-23T06:54:40;8.50;;;5.43;;
9745;SDS011;4912;50.836;12.958;2022-07-23T06:57:10;8.70;;;5.82;;
9745;SDS011;4912;50.836;12.958;2022-07-23T06:59:43;8.43;;;5.63;;
9745;SDS011;4912;50.836;12.958;2022-07-23T07:02:20;11.38;;;6.25;;
9745;SDS011;4912;50.836;12.958;2022-07-23T07:07:30;13.75;;;6.05;;
9745;SDS011;4912;50.836;12.958;2022-07-23T07:10:00;7.57;;;5.70;;
9745;SDS011;4912;50.836;12.958;2022-07-23T07:12:30;7.50;;;5.90;;
9745;SDS011;4912;50.836;12.958;2022-07-23T07:15:04;9.20;;;5.55;;
9745;SDS011;4912;50.836;12.958;2022-07-23T07:17:35;8.95;;;5.55;;
9745;SDS011;4912;50.836;12.958;2022-07-23T07:20:06;8.57;;;5.60;;
9745;SDS011;4912;50.836;12.958;2022-07-23T07:22:38;8.45;;;5.32;;
9745;SDS011;4912;50.836;12.958;2022-07-23T07:25:08;6.63;;;4.75;;
9745;SDS011;4912;50.836;12.958;2022-07-23T07:27:39;8.13;;;5.50;;
9745;SDS011;4912;50.836;12.958;2022-07-23T07:30:13;8.00;;;5.55;;
9745;SDS011;4912;50.836;12.958;2022-07-23T07:32:43;10.10;;;5.03;;
9745;SDS011;4912;50.836;12.958;2022-07-23T07:35:23;12.80;;;5.17;;
9745;SDS011;4912;50.836;12.958;2022-07-23T07:37:53;6.35;;;4.82;;
9745;SDS011;4912;50.836;12.958;2022-07-23T07:40:24;7.65;;;5.20;;
9745;SDS011;4912;50.836;12.958;2022-07-23T07:42:59;10.68;;;6.20;;
9745;SDS011;4912;50.836;12.958;2022-07-23T07:45:33;7.93;;;5.30;;
9745;SDS011;4912;50.836;12.958;2022-07-23T07:48:04;8.43;;;5.20;;
9745;SDS011;4912;50.836;12.958;2022-07-23T07:50:34;9.27;;;5.47;;
9745;SDS011;4912;50.836;12.958;2022-07-23T07:53:05;8.10;;;5.50;;
9745;SDS011;4912;50.836;12.958;2022-07-23T07:55:35;7.82;;;4.93;;
9745;SDS011;4912;50.836;12.958;2022-07-23T08:00:38;8.97;;;4.83;;
9745;SDS011;4912;50.836;12.958;2022-07-23T08:03:08;7.30;;;4.82;;
9745;SDS011;4912;50.836;12.958;2022-07-23T08:05:39;7.68;;;5.28;;
9745;SDS011;4912;50.836;12.958;2022-07-23T08:08:09;7.28;;;5.55;;
9745;SDS011;4912;50.836;12.958;2022-07-23T08:10:41;6.47;;;4.45;;
9745;SDS011;4912;50.836;12.958;2022-07-23T08:13:12;8.10;;;5.40;;
9745;SDS011;4912;50.836;12.958;2022-07-23T08:15:46;8.60;;;5.43;;
9745;SDS011;4912;50.836;12.958;2022-07-23T08:18:18;8.15;;;5.15;;
9745;SDS011;4912;50.836;12.958;2022-07-23T08:20:48;8.60;;;5.18;;
9745;SDS011;4912;50.836;12.958;2022-07-23T08:23:18;9.13;;;5.38;;
9745;SDS011;4912;50.836;12.958;2022-07-23T08:25:55;9.40;;;5.78;;
9745;SDS011;4912;50.836;12.958;2022-07-23T08:28:26;8.45;;;5.50;;
9745;SDS011;4912;50.836;12.958;2022-07-23T08:31:02;6.53;;;5.28;;
9745;SDS011;4912;50.836;12.958;2022-07-23T08:33:32;6.72;;;4.75;;
9745;SDS011;4912;50.836;12.958;2022-07-23T08:36:03;6.50;;;5.20;;
9745;SDS011;4912;50.836;12.958;2022-07-23T08:38:35;8.88;;;5.65;;
9745;SDS011;4912;50.836;12.958;2022-07-23T08:41:05;7.05;;;4.97;;
9745;SDS011;4912;50.836;12.958;2022-07-23T08:43:37;8.43;;;4.97;;
9745;SDS011;4912;50.836;12.958;2022-07-23T08:46:13;8.43;;;4.85;;
9745;SDS011;4912;50.836;12.958;2022-07-23T08:48:47;8.82;;;5.03;;
9745;SDS011;4912;50.836;12.958;2022-07-23T08:51:18;7.10;;;5.38;;
9745;SDS011;4912;50.836;12.958;2022-07-23T08:53:50;7.30;;;5.07;;
9745;SDS011;4912;50.836;12.958;2022-07-23T08:56:22;12.52;;;5.30;;
9745;SDS011;4912;50.836;12.958;2022-07-23T08:58:52;8.40;;;5.13;;
9745;SDS011;4912;50.836;12.958;2022-07-23T09:01:26;5.97;;;4.30;;
9745;SDS011;4912;50.836;12.958;2022-07-23T09:03:56;7.40;;;5.22;;
9745;SDS011;4912;50.836;12.958;2022-07-23T09:06:27;8.73;;;5.78;;
9745;SDS011;4912;50.836;12.958;2022-07-23T09:08:58;9.55;;;6.30;;
9745;SDS011;4912;50.836;12.958;2022-07-23T09:11:47;7.55;;;5.10;;
9745;SDS011;4912;50.836;12.958;2022-07-23T09:14:38;7.63;;;5.22;;
9745;SDS011;4912;50.836;12.958;2022-07-23T09:17:13;6.22;;;4.75;;
9745;SDS011;4912;50.836;12.958;2022-07-23T09:19:46;6.50;;;5.03;;
9745;SDS011;4912;50.836;12.958;2022-07-23T09:22:18;12.82;;;5.38;;
9745;SDS011;4912;50.836;12.958;2022-07-23T09:25:04;7.57;;;5.30;;
9745;SDS011;4912;50.836;12.958;2022-07-23T09:27:45;7.85;;;5.35;;
9745;SDS011;4912;50.836;12.958;2022-07-23T09:30:22;7.78;;;5.43;;
9745;SDS011;4912;50.836;12.958;2022-07-23T09:33:07;10.43;;;6.47;;
9745;SDS011;4912;50.836;12.958;2022-07-23T09:35:43;7.97;;;6.00;;
9745;SDS011;4912;50.836;12.958;2022-07-23T09:38:16;7.70;;;5.88;;
9745;SDS011;4912;50.836;12.958;2022-07-23T09:41:04;8.65;;;6.05;;
9745;SDS011;4912;50.836;12.958;2022-07-23T09:43:36;13.50;;;5.35;;
9745;SDS011;4912;50.836;12.958;2022-07-23T09:46:19;8.43;;;5.50;;
9745;SDS011;4912;50.836;12.958;2022-07-23T09:48:54;9.30;;;5.93;;
9745;SDS011;4912;50.836;12.958;2022-07-23T09:51:26;7.75;;;5.80;;
9745;SDS011;4912;50.836;12.958;2022-07-23T09:54:04;6.93;;;5.78;;
9745;SDS011;4912;50.836;12.958;2022-07-23T09:56:34;9.63;;;5.70;;
9745;SDS011;4912;50.836;12.958;2022-07-23T09:59:06;8.27;;;5.07;;
9745;SDS011;4912;50.836;12.958;2022-07-23T10:01:38;6.95;;;5.25;;
9745;SDS011;4912;50.836;12.958;2022-07-23T10:04:11;8.05;;;5.55;;
9745;SDS011;4912;50.836;12.958;2022-07-23T10:07:08;11.73;;;5.63;;
9745;SDS011;4912;50.836;12.958;2022-07-23T10:12:43;7.50;;;5.25;;
9745;SDS011;4912;50.836;12.958;2022-07-23T10:15:29;8.70;;;5.22;;
9745;SDS011;4912;50.836;12.958;2022-07-23T10:18:00;7.28;;;4.97;;
9745;SDS011;4912;50.836;12.958;2022-07-23T10:20:33;13.05;;;5.60;;
9745;SDS011;4912;50.836;12.958;2022-07-23T10:23:05;7.13;;;5.47;;
9745;SDS011;4912;50.836;12.958;2022-07-23T10:25:52;9.90;;;5.05;;
9745;SDS011;4912;50.836;12.958;2022-07-23T10:28:40;7.63;;;5.07;;
9745;SDS011;4912;50.836;12.958;2022-07-23T10:31:25;8.02;;;5.18;;
9745;SDS011;4912;50.836;12.958;2022-07-23T10:34:30;7.40;;;5.32;;
9745;SDS011;4912;50.836;12.958;2022-07-23T10:37:15;12.00;;;5.78;;
9745;SDS011;4912;50.836;12.958;2022-07-23T10:42:43;10.35;;;5.40;;
9745;SDS011;4912;50.836;12.958;2022-07-23T10:45:22;8.85;;;5.10;;
9745;SDS011;4912;50.836;12.958;2022-07-23T10:48:11;8.73;;;5.28;;
9745;SDS011;4912;50.836;12.958;2022-07-23T10:50:45;7.22;;;5.07;;
9745;SDS011;4912;50.836;12.958;2022-07-23T10:53:55;8.50;;;5.70;;
9745;SDS011;4912;50.836;12.958;2022-07-23T10:59:20;7.60;;;5.20;;
9745;SDS011;4912;50.836;12.958;2022-07-23T11:01:51;11.07;;;5.60;;
9745;SDS011;4912;50.836;12.958;2022-07-23T11:07:18;9.90;;;5.35;;
9745;SDS011;4912;50.836;12.958;2022-07-23T11:09:51;11.45;;;5.82;;
9745;SDS011;4912;50.836;12.958;2022-07-23T11:12:32;9.38;;;5.47;;
9745;SDS011;4912;50.836;12.958;2022-07-23T11:15:05;9.63;;;5.22;;
9745;SDS011;4912;50.836;12.958;2022-07-23T11:17:39;8.77;;;6.15;;
9745;SDS011;4912;50.836;12.958;2022-07-23T11:20:29;7.28;;;5.85;;
9745;SDS011;4912;50.836;12.958;2022-07-23T11:22:59;9.13;;;5.85;;
9745;SDS011;4912;50.836;12.958;2022-07-23T11:25:34;10.70;;;5.60;;
9745;SDS011;4912;50.836;12.958;2022-07-23T11:28:13;9.43;;;5.60;;
9745;SDS011;4912;50.836;12.958;2022-07-23T11:30:47;9.80;;;5.30;;
9745;SDS011;4912;50.836;12.958;2022-07-23T11:33:21;12.20;;;5.85;;
9745;SDS011;4912;50.836;12.958;2022-07-23T11:36:01;8.98;;;5.90;;
9745;SDS011;4912;50.836;12.958;2022-07-23T11:38:33;6.65;;;5.40;;
9745;SDS011;4912;50.836;12.958;2022-07-23T11:41:07;7.90;;;5.25;;
9745;SDS011;4912;50.836;12.958;2022-07-23T11:43:38;10.00;;;5.57;;
9745;SDS011;4912;50.836;12.958;2022-07-23T11:48:39;7.93;;;4.80;;
9745;SDS011;4912;50.836;12.958;2022-07-23T11:51:09;8.90;;;5.03;;
9745;SDS011;4912;50.836;12.958;2022-07-23T11:53:40;7.80;;;5.40;;
9745;SDS011;4912;50.836;12.958;2022-07-23T11:56:12;9.40;;;5.47;;
9745;SDS011;4912;50.836;12.958;2022-07-23T11:58:53;7.43;;;5.32;;
9745;SDS011;4912;50.836;12.958;2022-07-23T12:01:26;8.77;;;4.80;;
9745;SDS011;4912;50.836;12.958;2022-07-23T12:03:56;6.18;;;5.05;;
9745;SDS011;4912;50.836;12.958;2022-07-23T12:06:27;11.70;;;5.78;;
9745;SDS011;4912;50.836;12.958;2022-07-23T12:09:03;7.90;;;5.57;;
9745;SDS011;4912;50.836;12.958;2022-07-23T12:11:36;8.43;;;6.03;;
9745;SDS011;4912;50.836;12.958;2022-07-23T12:14:09;7.40;;;5.78;;
9745;SDS011;4912;50.836;12.958;2022-07-23T12:16:40;5.90;;;4.70;;
9745;SDS011;4912;50.836;12.958;2022-07-23T12:19:10;6.30;;;5.00;;
9745;SDS011;4912;50.836;12.958;2022-07-23T12:21:41;8.77;;;5.20;;
9745;SDS011;4912;50.836;12.958;2022-07-23T12:24:11;8.55;;;5.15;;
9745;SDS011;4912;50.836;12.958;2022-07-23T12:26:59;6.32;;;4.93;;
9745;SDS011;4912;50.836;12.958;2022-07-23T12:29:37;7.28;;;4.68;;
9745;SDS011;4912;50.836;12.958;2022-07-23T12:32:16;6.15;;;4.90;;
9745;SDS011;4912;50.836;12.958;2022-07-23T12:34:49;7.57;;;5.88;;
9745;SDS011;4912;50.836;12.958;2022-07-23T12:37:32;8.02;;;5.90;;
9745;SDS011;4912;50.836;12.958;2022-07-23T12:43:05;7.35;;;5.43;;
9745;SDS011;4912;50.836;12.958;2022-07-23T12:45:47;7.22;;;6.07;;
9745;SDS011;4912;50.836;12.958;2022-07-23T12:48:21;9.65;;;6.70;;
9745;SDS011;4912;50.836;12.958;2022-07-23T12:50:55;10.48;;;6.28;;
9745;SDS011;4912;50.836;12.958;2022-07-23T12:53:28;8.05;;;6.05;;
9745;SDS011;4912;50.836;12.958;2022-07-23T12:56:03;8.68;;;6.18;;
9745;SDS011;4912;50.836;12.958;2022-07-23T12:58:47;9.90;;;7.20;;
9745;SDS011;4912;50.836;12.958;2022-07-23T13:01:22;9.88;;;5.95;;
9745;SDS011;4912;50.836;12.958;2022-07-23T13:04:01;9.20;;;6.70;;
9745;SDS011;4912;50.836;12.958;2022-07-23T13:06:40;8.48;;;6.32;;
9745;SDS011;4912;50.836;12.958;2022-07-23T13:09:13;8.50;;;6.70;;
9745;SDS011;4912;50.836;12.958;2022-07-23T13:11:45;12.10;;;7.07;;
9745;SDS011;4912;50.836;12.958;2022-07-23T13:14:20;8.27;;;6.75;;
9745;SDS011;4912;50.836;12.958;2022-07-23T13:16:52;11.32;;;7.43;;
9745;SDS011;4912;50.836;12.958;2022-07-23T13:19:25;7.97;;;6.40;;
9745;SDS011;4912;50.836;12.958;2022-07-23T13:21:55;10.02;;;7.68;;
9745;SDS011;4912;50.836;12.958;2022-07-23T13:24:34;8.10;;;7.05;;
9745;SDS011;4912;50.836;12.958;2022-07-23T13:27:05;9.27;;;6.60;;
9745;SDS011;4912;50.836;12.958;2022-07-23T13:29:41;9.93;;;7.00;;
9745;SDS011;4912;50.836;12.958;2022-07-23T13:32:11;11.43;;;8.20;;
9745;SDS011;4912;50.836;12.958;2022-07-23T13:34:42;11.90;;;8.32;;
9745;SDS011;4912;50.836;12.958;2022-07-23T13:37:16;10.82;;;8.10;;
9745;SDS011;4912;50.836;12.958;2022-07-23T13:39:46;10.13;;;7.68;;
9745;SDS011;4912;50.836;12.958;2022-07-23T13:42:17;10.85;;;8.10;;
9745;SDS011;4912;50.836;12.958;2022-07-23T13:44:51;13.88;;;8.95;;
9745;SDS011;4912;50.836;12.958;2022-07-23T13:47:22;8.85;;;6.75;;
9745;SDS011;4912;50.836;12.958;2022-07-23T13:49:53;9.88;;;7.70;;
9745;SDS011;4912;50.836;12.958;2022-07-23T13:52:23;11.65;;;7.43;;
9745;SDS011;4912;50.836;12.958;2022-07-23T13:54:53;10.80;;;8.40;;
9745;SDS011;4912;50.836;12.958;2022-07-23T13:57:24;9.77;;;7.20;;
9745;SDS011;4912;50.836;12.958;2022-07-23T13:59:57;14.75;;;9.07;;
9745;SDS011;4912;50.836;12.958;2022-07-23T14:02:30;13.05;;;8.32;;
9745;SDS011;4912;50.836;12.958;2022-07-23T14:05:02;14.65;;;8.40;;
9745;SDS011;4912;50.836;12.958;2022-07-23T14:07:34;11.38;;;9.23;;
9745;SDS011;4912;50.836;12.958;2022-07-23T14:10:06;10.45;;;8.70;;
9745;SDS011;4912;50.836;12.958;2022-07-23T14:12:40;13.77;;;7.60;;
9745;SDS011;4912;50.836;12.958;2022-07-23T14:17:44;9.50;;;8.48;;
9745;SDS011;4912;50.836;12.958;2022-07-23T14:20:15;9.60;;;8.45;;
9745;SDS011;4912;50.836;12.958;2022-07-23T14:22:45;10.02;;;7.82;;
9745;SDS011;4912;50.836;12.958;2022-07-23T14:25:16;9.75;;;7.95;;
9745;SDS011;4912;50.836;12.958;2022-07-23T14:27:47;9.55;;;7.95;;
9745;SDS011;4912;50.836;12.958;2022-07-23T14:30:20;10.00;;;8.00;;
9745;SDS011;4912;50.836;12.958;2022-07-23T14:32:59;10.68;;;7.78;;
9745;SDS011;4912;50.836;12.958;2022-07-23T14:35:30;11.15;;;8.20;;
9745;SDS011;4912;50.836;12.958;2022-07-23T14:38:01;8.50;;;7.40;;
9745;SDS011;4912;50.836;12.958;2022-07-23T14:40:31;8.98;;;7.53;;
9745;SDS011;4912;50.836;12.958;2022-07-23T14:43:01;9.27;;;7.93;;
9745;SDS011;4912;50.836;12.958;2022-07-23T14:48:14;9.32;;;7.70;;
9745;SDS011;4912;50.836;12.958;2022-07-23T14:50:47;9.00;;;7.55;;
9745;SDS011;4912;50.836;12.958;2022-07-23T14:53:17;10.95;;;8.45;;
9745;SDS011;4912;50.836;12.958;2022-07-23T14:55:51;13.82;;;8.20;;
9745;SDS011;4912;50.836;12.958;2022-07-23T14:58:22;9.70;;;8.00;;
9745;SDS011;4912;50.836;12.958;2022-07-23T15:00:56;9.55;;;8.00;;
9745;SDS011;4912;50.836;12.958;2022-07-23T15:03:26;10.13;;;7.90;;
9745;SDS011;4912;50.836;12.958;2022-07-23T15:06:07;9.88;;;7.65;;
9745;SDS011;4912;50.836;12.958;2022-07-23T15:08:38;8.90;;;7.80;;
9745;SDS011;4912;50.836;12.958;2022-07-23T15:11:08;8.55;;;7.65;;
9745;SDS011;4912;50.836;12.958;2022-07-23T15:13:41;10.13;;;7.03;;
9745;SDS011;4912;50.836;12.958;2022-07-23T15:16:15;9.68;;;7.38;;
9745;SDS011;4912;50.836;12.958;2022-07-23T15:18:50;10.20;;;8.20;;
9745;SDS011;4912;50.836;12.958;2022-07-23T15:21:20;13.00;;;8.57;;
9745;SDS011;4912;50.836;12.958;2022-07-23T15:23:52;9.95;;;8.68;;
9745;SDS011;4912;50.836;12.958;2022-07-23T15:26:26;9.50;;;8.55;;
9745;SDS011;4912;50.836;12.958;2022-07-23T15:28:58;9.65;;;8.52;;
9745;SDS011;4912;50.836;12.958;2022-07-23T15:31:32;11.30;;;9.18;;
9745;SDS011;4912;50.836;12.958;2022-07-23T15:34:03;11.23;;;9.90;;
9745;SDS011;4912;50.836;12.958;2022-07-23T15:36:33;9.75;;;8.75;;
9745;SDS011;4912;50.836;12.958;2022-07-23T15:39:03;12.68;;;9.02;;
9745;SDS011;4912;50.836;12.958;2022-07-23T15:41:35;9.80;;;8.80;;
9745;SDS011;4912;50.836;12.958;2022-07-23T15:44:09;10.85;;;9.48;;
9745;SDS011;4912;50.836;12.958;2022-07-23T15:46:57;11.05;;;9.88;;
9745;SDS011;4912;50.836;12.958;2022-07-23T15:49:27;25.40;;;21.27;;
9745;SDS011;4912;50.836;12.958;2022-07-23T15:51:58;19.90;;;14.38;;
9745;SDS011;4912;50.836;12.958;2022-07-23T15:54:28;14.90;;;13.35;;
9745;SDS011;4912;50.836;12.958;2022-07-23T15:57:00;12.60;;;9.65;;
9745;SDS011;4912;50.836;12.958;2022-07-23T15:59:32;13.57;;;9.80;;
9745;SDS011;4912;50.836;12.958;2022-07-23T16:02:05;10.88;;;9.65;;
9745;SDS011;4912;50.836;12.958;2022-07-23T16:04:36;14.63;;;10.73;;
9745;SDS011;4912;50.836;12.958;2022-07-23T16:07:06;13.75;;;10.18;;
9745;SDS011;4912;50.836;12.958;2022-07-23T16:09:41;11.95;;;10.40;;
9745;SDS011;4912;50.836;12.958;2022-07-23T16:14:41;14.15;;;9.75;;